createdAt,value
2018-04-30T00:00:57.166Z,82.90
2018-04-30T00:02:00.493Z,82.90
2018-04-30T00:03:03.016Z,82.80
2018-04-30T00:04:06.314Z,83.10
2018-04-30T00:05:08.843Z,83.00
2018-04-30T00:06:11.371Z,83.00
2018-04-30T00:07:13.943Z,83.00
2018-04-30T00:08:16.467Z,83.20
2018-04-30T00:09:19.799Z,83.30
2018-04-30T00:10:22.341Z,83.30
2018-04-30T00:11:24.868Z,83.60
2018-04-30T00:12:28.169Z,84.30
2018-04-30T00:13:30.696Z,83.80
2018-04-30T00:14:33.256Z,83.90
2018-04-30T00:15:35.780Z,84.00
2018-04-30T00:16:38.311Z,84.20
2018-04-30T00:17:40.832Z,84.20
2018-04-30T00:18:43.359Z,84.30
2018-04-30T00:19:46.688Z,84.70
2018-04-30T00:20:49.207Z,84.70
2018-04-30T00:21:52.487Z,84.80
2018-04-30T00:22:55.792Z,84.90
2018-04-30T00:23:58.308Z,84.90
2018-04-30T00:25:00.871Z,85.10
2018-04-30T00:26:03.392Z,85.10
2018-04-30T00:27:05.922Z,85.30
2018-04-30T00:28:08.439Z,85.30
2018-04-30T00:29:11.014Z,85.30
2018-04-30T00:30:13.577Z,85.20
2018-04-30T00:31:16.107Z,85.40
2018-04-30T00:32:19.398Z,85.70
2018-04-30T00:33:22.716Z,85.60
2018-04-30T00:34:25.249Z,85.70
2018-04-30T00:35:27.777Z,85.90
2018-04-30T00:36:30.309Z,85.80
2018-04-30T00:37:32.875Z,85.90
2018-04-30T00:38:35.397Z,85.80
2018-04-30T00:39:38.820Z,85.80
2018-04-30T00:40:41.352Z,85.80
2018-04-30T00:41:44.651Z,86.30
2018-04-30T00:42:47.207Z,86.30
2018-04-30T00:43:49.795Z,86.30
2018-04-30T00:44:52.359Z,86.20
2018-04-30T00:45:54.891Z,86.50
2018-04-30T00:46:57.410Z,86.90
2018-04-30T00:47:59.939Z,86.40
2018-04-30T00:49:03.227Z,86.50
2018-04-30T00:50:06.583Z,86.90
2018-04-30T00:51:09.116Z,86.90
2018-04-30T00:52:11.645Z,86.80
2018-04-30T00:53:14.940Z,87.20
2018-04-30T00:54:29.168Z,87.20
2018-04-30T00:55:32.501Z,87.20
2018-04-30T00:56:35.029Z,87.20
2018-04-30T00:57:38.393Z,87.00
2018-04-30T00:58:41.690Z,87.20
2018-04-30T00:59:44.988Z,87.30
2018-04-30T01:00:47.609Z,87.30
2018-04-30T01:01:50.146Z,87.30
2018-04-30T01:02:52.681Z,87.40
2018-04-30T01:03:55.216Z,87.30
2018-04-30T01:04:57.743Z,87.40
2018-04-30T01:06:00.312Z,87.50
2018-04-30T01:07:02.836Z,87.50
2018-04-30T01:08:06.132Z,87.10
2018-04-30T01:09:08.664Z,87.10
2018-04-30T01:10:11.183Z,87.70
2018-04-30T01:11:13.743Z,87.80
2018-04-30T01:12:18.212Z,87.80
2018-04-30T01:13:20.743Z,88.00
2018-04-30T01:14:23.267Z,88.10
2018-04-30T01:15:26.576Z,89.00
2018-04-30T01:16:29.153Z,89.00
2018-04-30T01:17:31.688Z,89.00
2018-04-30T01:18:34.215Z,89.40
2018-04-30T01:19:36.749Z,89.80
2018-04-30T01:20:39.275Z,90.00
2018-04-30T01:21:42.626Z,90.30
2018-04-30T01:22:45.161Z,90.30
2018-04-30T01:23:47.687Z,90.10
2018-04-30T01:24:50.976Z,90.10
2018-04-30T01:25:54.269Z,90.30
2018-04-30T01:26:56.854Z,90.30
2018-04-30T01:27:59.389Z,90.30
2018-04-30T01:29:02.684Z,90.40
2018-04-30T01:30:05.251Z,90.40
2018-04-30T01:31:07.783Z,90.40
2018-04-30T01:32:10.314Z,90.50
2018-04-30T01:33:12.901Z,90.50
2018-04-30T01:34:15.440Z,90.50
2018-04-30T01:35:17.975Z,90.40
2018-04-30T01:36:21.307Z,90.30
2018-04-30T01:37:23.870Z,90.30
2018-04-30T01:38:26.388Z,90.40
2018-04-30T01:39:29.688Z,90.40
2018-04-30T01:40:32.219Z,90.40
2018-04-30T01:41:34.757Z,90.50
2018-04-30T01:42:38.110Z,90.20
2018-04-30T01:43:40.636Z,90.50
2018-04-30T01:44:43.196Z,90.50
2018-04-30T01:45:45.715Z,90.50
2018-04-30T01:46:48.240Z,90.50
2018-04-30T01:47:50.769Z,90.60
2018-04-30T01:48:53.333Z,90.60
2018-04-30T01:49:55.872Z,90.80
2018-04-30T01:50:58.403Z,90.60
2018-04-30T01:52:00.920Z,90.60
2018-04-30T01:53:03.482Z,90.70
2018-04-30T01:54:06.011Z,90.60
2018-04-30T01:55:08.531Z,90.80
2018-04-30T01:56:11.094Z,90.80
2018-04-30T01:57:13.646Z,90.80
2018-04-30T01:58:16.179Z,90.90
2018-04-30T01:59:19.476Z,90.90
2018-04-30T02:00:22.816Z,91.00
2018-04-30T02:01:25.343Z,91.00
2018-04-30T02:02:27.872Z,90.90
2018-04-30T02:03:30.399Z,91.00
2018-04-30T02:04:32.940Z,91.10
2018-04-30T02:05:35.507Z,91.10
2018-04-30T02:06:38.036Z,91.20
2018-04-30T02:07:40.605Z,91.20
2018-04-30T02:08:43.139Z,91.30
2018-04-30T02:09:45.664Z,91.40
2018-04-30T02:10:48.232Z,91.40
2018-04-30T02:11:50.761Z,91.40
2018-04-30T02:12:53.301Z,91.50
2018-04-30T02:13:55.837Z,91.60
2018-04-30T02:14:58.380Z,91.50
2018-04-30T02:16:01.715Z,91.60
2018-04-30T02:17:04.246Z,91.50
2018-04-30T02:18:06.770Z,91.60
2018-04-30T02:19:09.295Z,91.60
2018-04-30T02:20:11.816Z,91.70
2018-04-30T02:21:15.150Z,91.80
2018-04-30T02:22:17.687Z,91.80
2018-04-30T02:23:20.992Z,91.80
2018-04-30T02:24:23.550Z,91.80
2018-04-30T02:25:26.076Z,91.90
2018-04-30T02:26:28.641Z,91.80
2018-04-30T02:27:31.163Z,92.10
2018-04-30T02:28:33.691Z,92.10
2018-04-30T02:29:37.008Z,92.20
2018-04-30T02:30:39.540Z,92.20
2018-04-30T02:31:42.836Z,92.30
2018-04-30T02:32:45.398Z,92.30
2018-04-30T02:33:48.715Z,92.40
2018-04-30T02:34:51.244Z,92.40
2018-04-30T02:35:53.783Z,92.40
2018-04-30T02:36:56.319Z,92.50
2018-04-30T02:37:58.880Z,92.50
2018-04-30T02:39:01.410Z,92.50
2018-04-30T02:40:04.709Z,92.60
2018-04-30T02:41:07.244Z,92.60
2018-04-30T02:42:09.778Z,92.60
2018-04-30T02:43:12.340Z,92.60
2018-04-30T02:44:14.874Z,92.60
2018-04-30T02:45:17.437Z,92.50
2018-04-30T02:46:19.991Z,92.50
2018-04-30T02:47:23.284Z,92.80
2018-04-30T02:48:26.585Z,92.60
2018-04-30T02:49:29.161Z,92.60
2018-04-30T02:50:31.710Z,92.60
2018-04-30T02:51:34.239Z,92.60
2018-04-30T02:52:36.768Z,92.80
2018-04-30T02:53:39.321Z,92.70
2018-04-30T02:54:41.892Z,92.70
2018-04-30T02:55:44.424Z,92.80
2018-04-30T02:56:47.712Z,93.00
2018-04-30T02:57:50.999Z,93.10
2018-04-30T02:58:54.292Z,93.10
2018-04-30T02:59:56.859Z,93.00
2018-04-30T03:00:59.397Z,93.10
2018-04-30T03:02:01.940Z,93.20
2018-04-30T03:03:04.478Z,93.20
2018-04-30T03:04:07.007Z,93.20
2018-04-30T03:05:10.333Z,93.40
2018-04-30T03:06:12.863Z,93.60
2018-04-30T03:07:15.435Z,93.30
2018-04-30T03:08:17.960Z,93.20
2018-04-30T03:09:20.515Z,93.20
2018-04-30T03:10:23.039Z,93.20
2018-04-30T03:11:25.580Z,93.20
2018-04-30T03:12:28.145Z,93.20
2018-04-30T03:13:30.680Z,93.20
2018-04-30T03:14:33.199Z,93.20
2018-04-30T03:15:35.769Z,93.30
2018-04-30T03:16:38.303Z,93.40
2018-04-30T03:17:40.832Z,93.40
2018-04-30T03:18:43.393Z,93.50
2018-04-30T03:19:45.926Z,93.70
2018-04-30T03:20:49.231Z,93.80
2018-04-30T03:21:51.967Z,93.80
2018-04-30T03:22:54.537Z,93.90
2018-04-30T03:23:57.879Z,94.10
2018-04-30T03:25:00.416Z,94.10
2018-04-30T03:26:02.948Z,94.10
2018-04-30T03:27:05.466Z,94.20
2018-04-30T03:28:07.992Z,94.20
2018-04-30T03:29:10.560Z,94.20
2018-04-30T03:30:13.971Z,94.40
2018-04-30T03:31:16.496Z,94.40
2018-04-30T03:32:19.016Z,94.40
2018-04-30T03:33:21.540Z,94.40
2018-04-30T03:34:24.869Z,94.40
2018-04-30T03:35:27.393Z,94.40
2018-04-30T03:36:30.682Z,94.40
2018-04-30T03:37:33.980Z,94.30
2018-04-30T03:38:36.527Z,94.30
2018-04-30T03:39:39.095Z,94.30
2018-04-30T03:40:41.640Z,94.30
2018-04-30T03:41:44.168Z,94.30
2018-04-30T03:42:46.700Z,94.30
2018-04-30T03:43:49.225Z,94.30
2018-04-30T03:44:51.787Z,94.30
2018-04-30T03:45:54.351Z,94.30
2018-04-30T03:46:56.907Z,94.30
2018-04-30T03:47:59.427Z,94.40
2018-04-30T03:49:02.725Z,94.40
2018-04-30T03:50:05.253Z,94.40
2018-04-30T03:51:07.776Z,94.40
2018-04-30T03:52:10.344Z,94.30
2018-04-30T03:53:12.884Z,94.40
2018-04-30T03:54:15.417Z,94.40
2018-04-30T03:55:17.956Z,94.40
2018-04-30T03:56:20.486Z,94.30
2018-04-30T03:57:23.053Z,94.40
2018-04-30T03:58:25.575Z,94.40
2018-04-30T03:59:28.108Z,94.50
2018-04-30T04:00:42.574Z,94.50
2018-04-30T04:01:57.117Z,94.40
2018-04-30T04:03:11.524Z,94.40
2018-04-30T04:04:25.925Z,94.30
2018-04-30T04:05:40.452Z,94.30
2018-04-30T04:06:52.492Z,94.40
2018-04-30T04:07:55.793Z,94.50
2018-04-30T04:08:58.344Z,94.50
2018-04-30T04:10:01.636Z,94.40
2018-04-30T04:11:04.192Z,94.40
2018-04-30T04:12:07.481Z,94.40
2018-04-30T04:13:10.011Z,94.40
2018-04-30T04:14:12.568Z,94.50
2018-04-30T04:15:15.136Z,94.50
2018-04-30T04:16:17.671Z,94.60
2018-04-30T04:17:20.225Z,94.50
2018-04-30T04:18:22.743Z,94.60
2018-04-30T04:19:25.259Z,94.60
2018-04-30T04:20:27.804Z,94.60
2018-04-30T04:21:30.346Z,94.60
2018-04-30T04:22:32.924Z,94.70
2018-04-30T04:23:36.224Z,94.70
2018-04-30T04:24:39.512Z,94.80
2018-04-30T04:25:42.042Z,94.70
2018-04-30T04:26:44.582Z,94.70
2018-04-30T04:27:47.172Z,94.90
2018-04-30T04:28:49.702Z,94.90
2018-04-30T04:29:52.233Z,95.00
2018-04-30T04:30:55.515Z,95.10
2018-04-30T04:31:58.815Z,95.20
2018-04-30T04:33:01.381Z,95.10
2018-04-30T04:34:03.914Z,95.30
2018-04-30T04:35:06.464Z,95.40
2018-04-30T04:36:09.044Z,95.50
2018-04-30T04:37:11.581Z,95.70
2018-04-30T04:38:14.151Z,96.00
2018-04-30T04:39:16.672Z,95.80
2018-04-30T04:40:19.207Z,95.90
2018-04-30T04:41:21.745Z,96.30
2018-04-30T04:42:24.280Z,96.00
2018-04-30T04:43:26.844Z,96.10
2018-04-30T04:44:29.368Z,96.20
2018-04-30T04:45:31.949Z,96.10
2018-04-30T04:46:35.260Z,96.40
2018-04-30T04:47:38.368Z,96.40
2018-04-30T04:48:40.913Z,96.30
2018-04-30T04:49:43.485Z,96.30
2018-04-30T04:50:46.014Z,96.40
2018-04-30T04:51:49.312Z,96.50
2018-04-30T04:52:52.618Z,96.50
2018-04-30T04:53:55.179Z,96.50
2018-04-30T04:54:57.748Z,96.60
2018-04-30T04:56:00.272Z,96.60
2018-04-30T04:57:02.793Z,96.70
2018-04-30T04:58:05.317Z,96.70
2018-04-30T04:59:08.615Z,96.80
2018-04-30T05:00:11.951Z,96.90
2018-04-30T05:01:14.483Z,96.90
2018-04-30T05:02:17.013Z,96.90
2018-04-30T05:03:20.312Z,96.90
2018-04-30T05:04:23.599Z,96.90
2018-04-30T05:05:26.201Z,96.80
2018-04-30T05:06:28.732Z,96.80
2018-04-30T05:07:32.021Z,96.90
2018-04-30T05:08:34.552Z,96.90
2018-04-30T05:09:37.081Z,97.00
2018-04-30T05:10:39.648Z,96.80
2018-04-30T05:11:42.193Z,96.80
2018-04-30T05:12:44.716Z,96.80
2018-04-30T05:13:47.256Z,96.90
2018-04-30T05:14:49.790Z,96.70
2018-04-30T05:15:52.349Z,96.90
2018-04-30T05:16:54.877Z,96.90
2018-04-30T05:17:57.412Z,96.90
2018-04-30T05:18:59.940Z,96.80
2018-04-30T05:20:02.484Z,96.80
2018-04-30T05:21:05.097Z,96.80
2018-04-30T05:22:07.615Z,96.90
2018-04-30T05:23:10.156Z,96.80
2018-04-30T05:24:12.679Z,96.80
2018-04-30T05:25:15.210Z,96.80
2018-04-30T05:26:17.772Z,96.90
2018-04-30T05:27:20.299Z,96.90
2018-04-30T05:28:22.823Z,97.00
2018-04-30T05:29:26.117Z,97.00
2018-04-30T05:30:29.421Z,97.10
2018-04-30T05:31:31.984Z,97.00
2018-04-30T05:32:34.547Z,97.10
2018-04-30T05:33:37.075Z,97.20
2018-04-30T05:34:39.595Z,97.10
2018-04-30T05:35:42.117Z,97.30
2018-04-30T05:36:44.693Z,97.40
2018-04-30T05:37:47.985Z,97.60
2018-04-30T05:38:51.282Z,97.60
2018-04-30T05:39:53.812Z,97.60
2018-04-30T05:40:56.340Z,97.50
2018-04-30T05:41:58.905Z,96.90
2018-04-30T05:43:01.437Z,96.90
2018-04-30T05:44:04.727Z,97.10
2018-04-30T05:45:07.256Z,97.10
2018-04-30T05:46:09.807Z,97.10
2018-04-30T05:47:12.368Z,97.20
2018-04-30T05:48:14.916Z,97.00
2018-04-30T05:49:17.480Z,97.20
2018-04-30T05:50:20.000Z,97.00
2018-04-30T05:51:22.525Z,97.20
2018-04-30T05:52:25.096Z,97.10
2018-04-30T05:53:27.617Z,97.10
2018-04-30T05:54:30.920Z,96.50
2018-04-30T05:55:33.487Z,96.50
2018-04-30T05:56:36.015Z,96.60
2018-04-30T05:57:39.247Z,96.40
2018-04-30T05:58:42.537Z,96.50
2018-04-30T05:59:45.060Z,96.50
2018-04-30T06:00:48.388Z,95.80
2018-04-30T06:01:50.905Z,95.80
2018-04-30T06:02:53.437Z,95.80
2018-04-30T06:03:55.959Z,95.90
2018-04-30T06:04:58.488Z,95.90
2018-04-30T06:06:01.073Z,96.00
2018-04-30T06:07:03.631Z,96.00
2018-04-30T06:08:06.159Z,95.70
2018-04-30T06:09:08.677Z,95.80
2018-04-30T06:10:11.266Z,95.80
2018-04-30T06:11:13.780Z,96.00
2018-04-30T06:12:16.483Z,96.10
2018-04-30T06:13:18.980Z,96.20
2018-04-30T06:14:21.517Z,96.30
2018-04-30T06:15:24.053Z,96.20
2018-04-30T06:16:26.585Z,96.30
2018-04-30T06:17:29.197Z,96.40
2018-04-30T06:18:31.686Z,96.50
2018-04-30T06:19:34.229Z,96.50
2018-04-30T06:20:37.565Z,96.90
2018-04-30T06:21:40.934Z,96.90
2018-04-30T06:22:43.453Z,96.90
2018-04-30T06:23:46.000Z,96.70
2018-04-30T06:24:48.540Z,96.60
2018-04-30T06:25:51.876Z,96.60
2018-04-30T06:26:54.438Z,96.60
2018-04-30T06:27:56.959Z,96.40
2018-04-30T06:28:59.512Z,96.70
2018-04-30T06:30:02.029Z,96.90
2018-04-30T06:31:04.559Z,96.90
2018-04-30T06:32:07.079Z,97.00
2018-04-30T06:33:10.372Z,97.00
2018-04-30T06:34:13.693Z,97.10
2018-04-30T06:35:16.219Z,97.10
2018-04-30T06:36:18.746Z,97.10
2018-04-30T06:37:21.313Z,97.20
2018-04-30T06:38:23.832Z,97.10
2018-04-30T06:39:26.361Z,97.10
2018-04-30T06:40:28.889Z,97.30
2018-04-30T06:41:31.422Z,97.20
2018-04-30T06:42:34.748Z,97.00
2018-04-30T06:43:37.273Z,97.00
2018-04-30T06:44:40.566Z,96.70
2018-04-30T06:45:43.083Z,96.70
2018-04-30T06:46:45.608Z,96.20
2018-04-30T06:47:48.169Z,96.20
2018-04-30T06:48:50.712Z,96.30
2018-04-30T06:49:54.015Z,95.80
2018-04-30T06:50:56.536Z,95.80
2018-04-30T06:51:59.051Z,95.60
2018-04-30T06:53:01.601Z,95.50
2018-04-30T06:54:04.918Z,95.60
2018-04-30T06:55:07.440Z,95.60
2018-04-30T06:56:10.721Z,95.90
2018-04-30T06:57:14.009Z,96.20
2018-04-30T06:58:17.305Z,95.30
2018-04-30T06:59:20.629Z,95.60
2018-04-30T07:00:23.193Z,95.60
2018-04-30T07:01:25.711Z,95.40
2018-04-30T07:02:29.001Z,95.20
2018-04-30T07:03:32.285Z,95.30
2018-04-30T07:04:35.607Z,95.20
2018-04-30T07:05:38.131Z,95.20
2018-04-30T07:06:41.408Z,95.00
2018-04-30T07:07:43.924Z,95.00
2018-04-30T07:08:46.449Z,95.00
2018-04-30T07:09:49.775Z,94.70
2018-04-30T07:10:52.320Z,94.70
2018-04-30T07:11:54.873Z,94.40
2018-04-30T07:12:58.162Z,94.40
2018-04-30T07:14:00.687Z,94.40
2018-04-30T07:15:03.214Z,94.30
2018-04-30T07:16:05.776Z,94.00
2018-04-30T07:17:08.296Z,94.10
2018-04-30T07:18:10.809Z,93.90
2018-04-30T07:19:14.096Z,93.80
2018-04-30T07:20:16.612Z,93.80
2018-04-30T07:21:19.173Z,93.60
2018-04-30T07:22:21.692Z,93.60
2018-04-30T07:23:24.208Z,93.70
2018-04-30T07:24:26.723Z,93.50
2018-04-30T07:25:29.253Z,93.80
2018-04-30T07:26:32.578Z,93.60
2018-04-30T07:27:35.133Z,93.60
2018-04-30T07:28:38.402Z,93.00
2018-04-30T07:29:40.927Z,93.00
2018-04-30T07:30:43.481Z,93.20
2018-04-30T07:31:46.042Z,93.20
2018-04-30T07:32:48.562Z,92.90
2018-04-30T07:33:51.855Z,93.20
2018-04-30T07:34:54.379Z,93.20
2018-04-30T07:35:56.911Z,93.10
2018-04-30T07:36:59.467Z,93.10
2018-04-30T07:38:01.983Z,92.80
2018-04-30T07:39:04.637Z,92.70
2018-04-30T07:40:07.072Z,92.70
2018-04-30T07:41:09.595Z,92.90
2018-04-30T07:42:12.880Z,93.30
2018-04-30T07:43:16.201Z,93.20
2018-04-30T07:44:18.728Z,93.20
2018-04-30T07:45:21.246Z,93.10
2018-04-30T07:46:23.772Z,93.20
2018-04-30T07:47:27.108Z,93.60
2018-04-30T07:48:29.665Z,93.60
2018-04-30T07:49:32.234Z,93.60
2018-04-30T07:50:34.761Z,93.80
2018-04-30T07:51:38.072Z,93.90
2018-04-30T07:52:40.602Z,93.90
2018-04-30T07:53:43.888Z,93.90
2018-04-30T07:54:47.216Z,94.10
2018-04-30T07:55:49.744Z,94.00
2018-04-30T07:56:53.038Z,93.80
2018-04-30T07:57:55.598Z,93.80
2018-04-30T07:58:58.123Z,93.70
2018-04-30T08:00:01.779Z,93.70
2018-04-30T08:01:04.305Z,94.00
2018-04-30T08:02:07.629Z,94.20
2018-04-30T08:03:10.324Z,94.10
2018-04-30T08:04:12.725Z,94.30
2018-04-30T08:05:16.015Z,94.00
2018-04-30T08:06:19.297Z,93.70
2018-04-30T08:07:22.589Z,93.80
2018-04-30T08:08:25.920Z,93.60
2018-04-30T08:09:28.455Z,93.60
2018-04-30T08:10:30.984Z,93.80
2018-04-30T08:11:33.526Z,93.50
2018-04-30T08:12:36.075Z,93.40
2018-04-30T08:13:38.595Z,93.30
2018-04-30T08:14:41.881Z,93.00
2018-04-30T08:15:45.203Z,93.10
2018-04-30T08:16:47.717Z,93.10
2018-04-30T08:17:50.289Z,92.30
2018-04-30T08:18:53.590Z,92.40
2018-04-30T08:19:56.116Z,92.30
2018-04-30T08:20:58.643Z,92.20
2018-04-30T08:22:01.161Z,92.20
2018-04-30T08:23:03.715Z,92.20
2018-04-30T08:24:06.240Z,92.40
2018-04-30T08:25:08.771Z,92.30
2018-04-30T08:26:12.120Z,92.00
2018-04-30T08:27:14.648Z,92.00
2018-04-30T08:28:17.177Z,91.70
2018-04-30T08:29:19.699Z,91.60
2018-04-30T08:30:22.216Z,91.90
2018-04-30T08:31:24.871Z,91.40
2018-04-30T08:32:27.389Z,92.00
2018-04-30T08:33:29.936Z,91.30
2018-04-30T08:34:32.461Z,91.30
2018-04-30T08:35:35.003Z,91.30
2018-04-30T08:36:37.607Z,90.90
2018-04-30T08:37:40.107Z,90.50
2018-04-30T08:38:42.649Z,90.20
2018-04-30T08:39:45.944Z,90.10
2018-04-30T08:40:48.477Z,90.20
2018-04-30T08:41:51.043Z,90.20
2018-04-30T08:42:53.574Z,90.50
2018-04-30T08:43:56.100Z,90.60
2018-04-30T08:44:59.448Z,90.40
2018-04-30T08:46:02.082Z,90.40
2018-04-30T08:47:04.599Z,90.40
2018-04-30T08:48:07.124Z,90.30
2018-04-30T08:49:09.639Z,90.10
2018-04-30T08:50:12.205Z,88.70
2018-04-30T08:51:14.769Z,89.40
2018-04-30T08:52:17.303Z,90.20
2018-04-30T08:53:19.833Z,89.50
2018-04-30T08:54:23.117Z,89.20
2018-04-30T08:55:25.657Z,89.10
2018-04-30T08:56:28.212Z,88.60
2018-04-30T08:57:30.735Z,89.30
2018-04-30T08:58:33.247Z,88.00
2018-04-30T08:59:35.819Z,87.60
2018-04-30T09:00:38.376Z,88.20
2018-04-30T09:01:40.918Z,88.50
2018-04-30T09:02:43.435Z,88.90
2018-04-30T09:03:46.732Z,90.30
2018-04-30T09:04:49.292Z,90.30
2018-04-30T09:05:51.812Z,89.90
2018-04-30T09:06:54.330Z,89.80
2018-04-30T09:07:56.852Z,90.10
2018-04-30T09:08:59.421Z,90.50
2018-04-30T09:10:01.945Z,90.50
2018-04-30T09:11:04.523Z,90.30
2018-04-30T09:12:07.054Z,90.40
2018-04-30T09:13:10.344Z,90.50
2018-04-30T09:14:12.878Z,90.50
2018-04-30T09:15:15.403Z,90.50
2018-04-30T09:16:17.966Z,90.50
2018-04-30T09:17:20.484Z,90.30
2018-04-30T09:18:23.786Z,89.50
2018-04-30T09:19:27.080Z,89.40
2018-04-30T09:20:29.636Z,89.30
2018-04-30T09:21:32.938Z,89.60
2018-04-30T09:22:35.506Z,89.70
2018-04-30T09:23:38.032Z,90.00
2018-04-30T09:24:40.553Z,90.10
2018-04-30T09:25:43.076Z,89.90
2018-04-30T09:26:46.364Z,89.50
2018-04-30T09:27:49.695Z,90.10
2018-04-30T09:28:52.217Z,90.10
2018-04-30T09:29:55.500Z,89.90
2018-04-30T09:30:58.788Z,89.40
2018-04-30T09:32:02.080Z,89.70
2018-04-30T09:33:04.642Z,89.70
2018-04-30T09:34:07.173Z,89.40
2018-04-30T09:35:09.709Z,89.90
2018-04-30T09:36:12.236Z,90.10
2018-04-30T09:37:15.520Z,90.00
2018-04-30T09:38:18.090Z,90.00
2018-04-30T09:39:20.614Z,89.20
2018-04-30T09:40:23.175Z,88.90
2018-04-30T09:41:25.697Z,88.50
2018-04-30T09:42:28.224Z,89.00
2018-04-30T09:43:30.791Z,87.70
2018-04-30T09:44:33.349Z,88.10
2018-04-30T09:45:35.874Z,88.20
2018-04-30T09:46:38.428Z,87.50
2018-04-30T09:47:40.947Z,88.00
2018-04-30T09:48:43.468Z,88.40
2018-04-30T09:49:45.979Z,87.90
2018-04-30T09:50:48.545Z,88.10
2018-04-30T09:51:51.070Z,88.60
2018-04-30T09:52:53.589Z,88.20
2018-04-30T09:53:56.115Z,89.50
2018-04-30T09:54:58.648Z,90.00
2018-04-30T09:56:01.219Z,89.90
2018-04-30T09:57:03.742Z,89.20
2018-04-30T09:58:06.319Z,89.70
2018-04-30T09:59:08.847Z,89.70
2018-04-30T10:00:11.368Z,89.50
2018-04-30T10:01:14.659Z,90.40
2018-04-30T10:02:17.961Z,90.80
2018-04-30T10:03:20.514Z,90.80
2018-04-30T10:04:23.824Z,90.90
2018-04-30T10:05:26.347Z,90.90
2018-04-30T10:06:29.630Z,90.80
2018-04-30T10:07:32.214Z,90.80
2018-04-30T10:08:35.507Z,90.50
2018-04-30T10:09:38.033Z,90.50
2018-04-30T10:10:40.547Z,90.70
2018-04-30T10:11:43.113Z,90.10
2018-04-30T10:12:45.664Z,89.80
2018-04-30T10:13:48.213Z,90.40
2018-04-30T10:14:51.509Z,90.50
2018-04-30T10:15:54.803Z,90.70
2018-04-30T10:16:57.377Z,90.70
2018-04-30T10:17:59.901Z,90.80
2018-04-30T10:19:02.460Z,90.50
2018-04-30T10:20:04.999Z,90.40
2018-04-30T10:21:07.555Z,90.50
2018-04-30T10:22:10.072Z,90.90
2018-04-30T10:23:12.599Z,90.80
2018-04-30T10:24:15.124Z,91.60
2018-04-30T10:25:17.669Z,91.30
2018-04-30T10:26:20.997Z,91.20
2018-04-30T10:27:23.507Z,91.00
2018-04-30T10:28:26.059Z,91.10
2018-04-30T10:29:28.591Z,91.10
2018-04-30T10:30:31.242Z,91.00
2018-04-30T10:31:33.782Z,90.90
2018-04-30T10:32:36.300Z,91.20
2018-04-30T10:33:38.826Z,91.00
2018-04-30T10:34:42.124Z,90.80
2018-04-30T10:35:45.448Z,90.40
2018-04-30T10:36:47.973Z,90.40
2018-04-30T10:37:51.392Z,90.60
2018-04-30T10:38:53.852Z,90.60
2018-04-30T10:39:56.377Z,90.40
2018-04-30T10:40:59.661Z,90.30
2018-04-30T10:42:02.960Z,90.30
2018-04-30T10:43:05.523Z,90.30
2018-04-30T10:44:08.079Z,90.20
2018-04-30T10:45:11.364Z,90.90
2018-04-30T10:46:14.709Z,90.20
2018-04-30T10:47:17.248Z,90.20
2018-04-30T10:48:19.773Z,89.40
2018-04-30T10:49:22.310Z,90.20
2018-04-30T10:50:24.841Z,89.90
2018-04-30T10:51:27.408Z,88.70
2018-04-30T10:52:29.933Z,88.30
2018-04-30T10:53:32.505Z,88.60
2018-04-30T10:54:35.028Z,88.00
2018-04-30T10:55:37.550Z,88.40
2018-04-30T10:56:40.837Z,86.90
2018-04-30T10:57:44.176Z,86.70
2018-04-30T10:58:46.692Z,86.50
2018-04-30T10:59:49.985Z,84.90
2018-04-30T11:00:52.499Z,84.90
2018-04-30T11:01:55.022Z,84.40
2018-04-30T11:02:57.582Z,85.50
2018-04-30T11:04:00.135Z,85.10
2018-04-30T11:05:03.448Z,84.20
2018-04-30T11:06:05.972Z,84.20
2018-04-30T11:07:08.551Z,84.10
2018-04-30T11:08:11.845Z,84.70
2018-04-30T11:09:14.364Z,84.80
2018-04-30T11:10:16.945Z,83.00
2018-04-30T11:11:19.468Z,84.50
2018-04-30T11:12:22.055Z,85.10
2018-04-30T11:13:24.570Z,85.40
2018-04-30T11:14:27.860Z,86.20
2018-04-30T11:15:30.416Z,86.30
2018-04-30T11:16:33.707Z,81.80
2018-04-30T11:17:36.227Z,81.80
2018-04-30T11:18:38.763Z,83.20
2018-04-30T11:19:41.426Z,81.60
2018-04-30T11:20:43.950Z,82.20
2018-04-30T11:21:46.473Z,82.40
2018-04-30T11:22:48.996Z,82.30
2018-04-30T11:23:52.281Z,81.90
2018-04-30T11:24:55.608Z,82.30
2018-04-30T11:25:58.133Z,82.30
2018-04-30T11:27:00.653Z,81.50
2018-04-30T11:28:03.172Z,82.50
2018-04-30T11:29:05.705Z,82.90
2018-04-30T11:30:08.286Z,83.00
2018-04-30T11:31:11.584Z,82.90
2018-04-30T11:32:14.877Z,82.50
2018-04-30T11:33:17.407Z,82.50
2018-04-30T11:34:19.952Z,83.30
2018-04-30T11:35:22.524Z,84.30
2018-04-30T11:36:25.055Z,84.10
2018-04-30T11:37:27.647Z,84.30
2018-04-30T11:38:30.207Z,83.80
2018-04-30T11:39:32.739Z,82.70
2018-04-30T11:40:35.279Z,83.10
2018-04-30T11:41:38.593Z,82.40
2018-04-30T11:42:41.155Z,82.40
2018-04-30T11:43:43.691Z,82.40
2018-04-30T11:44:47.004Z,80.90
2018-04-30T11:45:49.547Z,80.80
2018-04-30T11:46:52.848Z,79.50
2018-04-30T11:47:55.416Z,78.70
2018-04-30T11:48:58.750Z,77.60
2018-04-30T11:50:01.299Z,77.50
2018-04-30T11:51:03.836Z,79.50
2018-04-30T11:52:06.375Z,78.30
2018-04-30T11:53:09.674Z,77.00
2018-04-30T11:54:13.000Z,78.30
2018-04-30T11:55:15.528Z,78.30
2018-04-30T11:56:18.837Z,78.90
2018-04-30T11:57:21.366Z,78.90
2018-04-30T11:58:24.671Z,77.20
2018-04-30T11:59:27.243Z,76.40
2018-04-30T12:00:29.782Z,75.80
2018-04-30T12:01:33.080Z,76.40
2018-04-30T12:02:35.619Z,76.30
2018-04-30T12:03:38.144Z,75.30
2018-04-30T12:04:40.709Z,74.60
2018-04-30T12:05:43.248Z,76.00
2018-04-30T12:06:45.830Z,75.00
2018-04-30T12:07:48.372Z,74.20
2018-04-30T12:08:51.687Z,73.60
2018-04-30T12:09:54.223Z,73.70
2018-04-30T12:10:57.583Z,72.60
2018-04-30T12:12:00.085Z,72.60
2018-04-30T12:13:02.623Z,72.50
2018-04-30T12:14:05.216Z,71.60
2018-04-30T12:15:07.795Z,72.30
2018-04-30T12:16:10.327Z,72.50
2018-04-30T12:17:12.856Z,72.30
2018-04-30T12:18:16.174Z,72.10
2018-04-30T12:19:18.703Z,73.00
2018-04-30T12:20:21.268Z,71.70
2018-04-30T12:21:23.795Z,71.50
2018-04-30T12:22:27.083Z,72.80
2018-04-30T12:23:29.629Z,72.90
2018-04-30T12:24:32.944Z,72.90
2018-04-30T12:25:35.526Z,72.90
2018-04-30T12:26:38.074Z,72.10
2018-04-30T12:27:40.616Z,70.80
2018-04-30T12:28:43.985Z,71.80
2018-04-30T12:29:46.568Z,71.90
2018-04-30T12:30:49.161Z,72.30
2018-04-30T12:31:51.733Z,72.60
2018-04-30T12:32:54.260Z,72.90
2018-04-30T12:33:57.567Z,71.80
2018-04-30T12:35:00.863Z,73.00
2018-04-30T12:36:03.496Z,73.00
2018-04-30T12:37:06.003Z,73.40
2018-04-30T12:38:08.548Z,73.00
2018-04-30T12:39:11.085Z,73.00
2018-04-30T12:40:13.624Z,73.70
2018-04-30T12:41:16.167Z,71.10
2018-04-30T12:42:18.762Z,71.10
2018-04-30T12:43:21.301Z,70.20
2018-04-30T12:44:23.834Z,71.00
2018-04-30T12:45:27.150Z,70.40
2018-04-30T12:46:29.701Z,70.40
2018-04-30T12:47:32.271Z,71.90
2018-04-30T12:48:34.815Z,71.10
2018-04-30T12:49:38.191Z,72.80
2018-04-30T12:50:40.677Z,71.90
2018-04-30T12:51:43.968Z,69.90
2018-04-30T12:52:46.552Z,69.80
2018-04-30T12:53:49.096Z,71.10
2018-04-30T12:54:52.412Z,68.90
2018-04-30T12:55:55.049Z,69.00
2018-04-30T12:56:57.540Z,68.40
2018-04-30T12:58:00.076Z,69.00
2018-04-30T12:59:03.383Z,71.30
2018-04-30T13:00:05.921Z,71.30
2018-04-30T13:01:09.284Z,71.60
2018-04-30T13:02:11.817Z,71.60
2018-04-30T13:03:14.356Z,71.40
2018-04-30T13:04:16.891Z,71.80
2018-04-30T13:05:19.425Z,71.30
2018-04-30T13:06:22.032Z,71.70
2018-04-30T13:07:24.571Z,72.20
2018-04-30T13:08:27.091Z,72.90
2018-04-30T13:09:29.614Z,72.00
2018-04-30T13:10:32.154Z,72.70
2018-04-30T13:11:34.727Z,72.30
2018-04-30T13:12:37.255Z,72.20
2018-04-30T13:13:40.543Z,71.80
2018-04-30T13:14:43.089Z,71.80
2018-04-30T13:15:46.405Z,72.50
2018-04-30T13:16:48.976Z,72.60
2018-04-30T13:17:51.495Z,72.80
2018-04-30T13:18:54.060Z,72.50
2018-04-30T13:19:56.623Z,72.50
2018-04-30T13:20:59.136Z,70.60
2018-04-30T13:22:01.652Z,69.40
2018-04-30T13:23:04.177Z,70.80
2018-04-30T13:24:06.695Z,71.20
2018-04-30T13:25:09.261Z,71.50
2018-04-30T13:26:11.781Z,70.70
2018-04-30T13:27:14.309Z,71.30
2018-04-30T13:28:17.600Z,70.10
2018-04-30T13:29:20.137Z,70.00